sensor_id;sensor_type;location;lat;lon;timestamp;pressure;altitude;pressure_sealevel;temperature;humidity
70555;BME280;58104;52.744;15.242;2023-05-11T00:00:40;100822.30;;;20.51;33.82
70555;BME280;58104;52.744;15.242;2023-05-11T00:03:06;100826.22;;;20.61;33.89
70555;BME280;58104;52.744;15.242;2023-05-11T00:05:31;100823.56;;;20.66;33.88
70555;BME280;58104;52.744;15.242;2023-05-11T00:07:56;100821.81;;;20.58;33.81
70555;BME280;58104;52.744;15.242;2023-05-11T00:10:22;100823.44;;;20.57;33.45
70555;BME280;58104;52.744;15.242;2023-05-11T00:12:47;100827.25;;;20.59;33.75
70555;BME280;58104;52.744;15.242;2023-05-11T00:15:12;100824.70;;;20.56;33.84
70555;BME280;58104;52.744;15.242;2023-05-11T00:17:38;100824.77;;;20.37;33.91
70555;BME280;58104;52.744;15.242;2023-05-11T00:20:04;100824.88;;;20.55;33.87
70555;BME280;58104;52.744;15.242;2023-05-11T00:22:28;100824.26;;;20.53;33.94
70555;BME280;58104;52.744;15.242;2023-05-11T00:24:54;100828.73;;;20.51;34.05
70555;BME280;58104;52.744;15.242;2023-05-11T00:27:19;100831.06;;;20.68;33.81
70555;BME280;58104;52.744;15.242;2023-05-11T00:29:44;100830.09;;;20.67;33.73
70555;BME280;58104;52.744;15.242;2023-05-11T00:32:10;100832.83;;;20.68;33.81
70555;BME280;58104;52.744;15.242;2023-05-11T00:34:35;100833.24;;;20.75;33.71
70555;BME280;58104;52.744;15.242;2023-05-11T00:37:00;100835.63;;;20.66;34.00
70555;BME280;58104;52.744;15.242;2023-05-11T00:39:26;100837.32;;;20.65;33.61
70555;BME280;58104;52.744;15.242;2023-05-11T00:41:52;100836.33;;;20.59;33.71
70555;BME280;58104;52.744;15.242;2023-05-11T00:44:17;100840.01;;;20.52;33.67
70555;BME280;58104;52.744;15.242;2023-05-11T00:46:43;100836.09;;;20.65;33.71
70555;BME280;58104;52.744;15.242;2023-05-11T00:49:08;100837.07;;;20.62;33.58
70555;BME280;58104;52.744;15.242;2023-05-11T00:51:34;100837.69;;;20.61;33.60
70555;BME280;58104;52.744;15.242;2023-05-11T00:53:59;100838.93;;;20.67;33.25
70555;BME280;58104;52.744;15.242;2023-05-11T00:56:25;100835.80;;;20.46;33.43
70555;BME280;58104;52.744;15.242;2023-05-11T00:58:50;100838.38;;;20.58;33.39
70555;BME280;58104;52.744;15.242;2023-05-11T01:01:15;100834.59;;;20.53;33.36
70555;BME280;58104;52.744;15.242;2023-05-11T01:03:41;100835.59;;;20.46;33.30
70555;BME280;58104;52.744;15.242;2023-05-11T01:06:10;100836.82;;;20.56;33.53
70555;BME280;58104;52.744;15.242;2023-05-11T01:08:38;100835.12;;;20.62;33.43
70555;BME280;58104;52.744;15.242;2023-05-11T01:11:04;100837.25;;;20.46;33.47
70555;BME280;58104;52.744;15.242;2023-05-11T01:13:29;100839.35;;;20.63;33.36
70555;BME280;58104;52.744;15.242;2023-05-11T01:15:50;100841.34;;;20.49;33.03
70555;BME280;58104;52.744;15.242;2023-05-11T01:18:21;100836.32;;;20.65;33.45
70555;BME280;58104;52.744;15.242;2023-05-11T01:20:39;100836.16;;;20.56;33.41
70555;BME280;58104;52.744;15.242;2023-05-11T01:23:11;100837.53;;;20.46;33.57
70555;BME280;58104;52.744;15.242;2023-05-11T01:25:41;100840.71;;;20.46;33.74
70555;BME280;58104;52.744;15.242;2023-05-11T01:30:25;100845.17;;;20.47;33.75
70555;BME280;58104;52.744;15.242;2023-05-11T01:32:46;100848.57;;;20.50;33.80
70555;BME280;58104;52.744;15.242;2023-05-11T01:35:17;100849.61;;;20.48;33.82
70555;BME280;58104;52.744;15.242;2023-05-11T01:37:40;100849.50;;;20.45;33.98
70555;BME280;58104;52.744;15.242;2023-05-11T01:40:04;100848.98;;;20.42;34.08
70555;BME280;58104;52.744;15.242;2023-05-11T01:42:31;100850.39;;;20.48;33.77
70555;BME280;58104;52.744;15.242;2023-05-11T01:44:53;100854.70;;;20.50;33.79
70555;BME280;58104;52.744;15.242;2023-05-11T01:47:18;100857.04;;;20.54;34.16
70555;BME280;58104;52.744;15.242;2023-05-11T01:49:43;100862.14;;;20.37;34.00
70555;BME280;58104;52.744;15.242;2023-05-11T01:52:08;100858.61;;;20.44;33.93
70555;BME280;58104;52.744;15.242;2023-05-11T01:54:34;100862.39;;;20.46;34.10
70555;BME280;58104;52.744;15.242;2023-05-11T01:57:00;100865.17;;;20.35;34.27
70555;BME280;58104;52.744;15.242;2023-05-11T01:59:24;100869.11;;;20.41;34.32
70555;BME280;58104;52.744;15.242;2023-05-11T02:01:50;100868.48;;;20.41;33.92
70555;BME280;58104;52.744;15.242;2023-05-11T02:04:18;100865.82;;;20.31;34.08
70555;BME280;58104;52.744;15.242;2023-05-11T02:06:42;100866.82;;;20.51;34.39
70555;BME280;58104;52.744;15.242;2023-05-11T02:09:07;100869.60;;;20.39;34.05
70555;BME280;58104;52.744;15.242;2023-05-11T02:11:32;100869.21;;;20.43;34.15
70555;BME280;58104;52.744;15.242;2023-05-11T02:13:57;100870.98;;;20.46;34.22
70555;BME280;58104;52.744;15.242;2023-05-11T02:16:23;100872.73;;;20.35;34.26
70555;BME280;58104;52.744;15.242;2023-05-11T02:18:48;100872.25;;;20.41;34.34
70555;BME280;58104;52.744;15.242;2023-05-11T02:21:14;100873.86;;;20.34;34.22
70555;BME280;58104;52.744;15.242;2023-05-11T02:23:39;100876.43;;;20.31;34.13
70555;BME280;58104;52.744;15.242;2023-05-11T02:26:04;100875.28;;;20.37;33.95
70555;BME280;58104;52.744;15.242;2023-05-11T02:28:29;100876.97;;;20.24;33.86
70555;BME280;58104;52.744;15.242;2023-05-11T02:30:56;100876.54;;;20.27;33.85
70555;BME280;58104;52.744;15.242;2023-05-11T02:33:23;100877.80;;;20.28;33.92
70555;BME280;58104;52.744;15.242;2023-05-11T02:35:46;100879.59;;;20.27;34.11
70555;BME280;58104;52.744;15.242;2023-05-11T02:38:11;100881.33;;;20.16;34.18
70555;BME280;58104;52.744;15.242;2023-05-11T02:40:42;100878.75;;;20.15;34.49
70555;BME280;58104;52.744;15.242;2023-05-11T02:43:08;100882.68;;;20.26;34.16
70555;BME280;58104;52.744;15.242;2023-05-11T02:45:30;100878.83;;;20.31;34.18
70555;BME280;58104;52.744;15.242;2023-05-11T02:47:54;100885.25;;;20.27;34.80
70555;BME280;58104;52.744;15.242;2023-05-11T02:50:22;100887.68;;;20.23;34.18
70555;BME280;58104;52.744;15.242;2023-05-11T02:52:46;100888.40;;;20.22;34.41
70555;BME280;58104;52.744;15.242;2023-05-11T02:55:11;100888.56;;;20.11;34.13
70555;BME280;58104;52.744;15.242;2023-05-11T02:57:35;100892.82;;;20.20;34.31
70555;BME280;58104;52.744;15.242;2023-05-11T03:00:01;100893.38;;;20.21;34.49
70555;BME280;58104;52.744;15.242;2023-05-11T03:02:27;100894.92;;;20.09;34.41
70555;BME280;58104;52.744;15.242;2023-05-11T03:04:52;100894.95;;;20.15;34.46
70555;BME280;58104;52.744;15.242;2023-05-11T03:07:17;100894.36;;;20.16;34.21
70555;BME280;58104;52.744;15.242;2023-05-11T03:09:43;100897.42;;;20.17;34.66
70555;BME280;58104;52.744;15.242;2023-05-11T03:12:09;100895.17;;;20.05;34.92
70555;BME280;58104;52.744;15.242;2023-05-11T03:14:34;100896.91;;;20.20;34.41
70555;BME280;58104;52.744;15.242;2023-05-11T03:16:59;100895.77;;;20.16;34.45
70555;BME280;58104;52.744;15.242;2023-05-11T03:19:26;100902.03;;;20.17;34.33
70555;BME280;58104;52.744;15.242;2023-05-11T03:21:51;100899.28;;;20.19;34.47
70555;BME280;58104;52.744;15.242;2023-05-11T03:24:17;100900.57;;;20.10;35.09
70555;BME280;58104;52.744;15.242;2023-05-11T03:26:42;100901.40;;;19.96;34.91
70555;BME280;58104;52.744;15.242;2023-05-11T03:29:07;100903.01;;;20.13;34.61
70555;BME280;58104;52.744;15.242;2023-05-11T03:31:32;100901.03;;;20.10;35.70
70555;BME280;58104;52.744;15.242;2023-05-11T03:33:57;100895.43;;;20.29;35.10
70555;BME280;58104;52.744;15.242;2023-05-11T03:36:23;100898.44;;;20.21;35.17
70555;BME280;58104;52.744;15.242;2023-05-11T03:38:50;100898.31;;;20.16;34.69
70555;BME280;58104;52.744;15.242;2023-05-11T03:41:16;100895.79;;;20.01;33.79
70555;BME280;58104;52.744;15.242;2023-05-11T03:43:39;100893.33;;;19.88;34.03
70555;BME280;58104;52.744;15.242;2023-05-11T03:46:05;100893.32;;;19.87;33.78
70555;BME280;58104;52.744;15.242;2023-05-11T03:48:30;100895.28;;;19.98;33.97
70555;BME280;58104;52.744;15.242;2023-05-11T03:50:55;100896.54;;;19.87;34.13
70555;BME280;58104;52.744;15.242;2023-05-11T03:53:21;100897.96;;;20.01;34.93
70555;BME280;58104;52.744;15.242;2023-05-11T03:55:46;100895.85;;;20.00;35.51
70555;BME280;58104;52.744;15.242;2023-05-11T03:58:12;100900.57;;;19.70;35.82
70555;BME280;58104;52.744;15.242;2023-05-11T04:00:38;100897.62;;;19.71;36.64
70555;BME280;58104;52.744;15.242;2023-05-11T04:03:04;100897.62;;;19.79;35.40
70555;BME280;58104;52.744;15.242;2023-05-11T04:05:28;100899.91;;;19.84;35.95
70555;BME280;58104;52.744;15.242;2023-05-11T04:07:53;100900.77;;;19.85;35.52
70555;BME280;58104;52.744;15.242;2023-05-11T04:10:19;100900.20;;;20.00;35.30
70555;BME280;58104;52.744;15.242;2023-05-11T04:12:44;100900.16;;;19.78;35.61
70555;BME280;58104;52.744;15.242;2023-05-11T04:15:10;100905.71;;;19.72;35.45
70555;BME280;58104;52.744;15.242;2023-05-11T04:17:35;100905.10;;;19.78;35.47
70555;BME280;58104;52.744;15.242;2023-05-11T04:20:00;100903.59;;;19.91;35.24
70555;BME280;58104;52.744;15.242;2023-05-11T04:22:25;100904.40;;;19.81;35.84
70555;BME280;58104;52.744;15.242;2023-05-11T04:24:51;100905.85;;;19.72;35.50
70555;BME280;58104;52.744;15.242;2023-05-11T04:27:17;100907.86;;;19.66;34.45
70555;BME280;58104;52.744;15.242;2023-05-11T04:29:42;100906.30;;;19.62;35.08
70555;BME280;58104;52.744;15.242;2023-05-11T04:32:08;100905.10;;;19.74;34.56
70555;BME280;58104;52.744;15.242;2023-05-11T04:34:33;100907.65;;;19.57;34.45
70555;BME280;58104;52.744;15.242;2023-05-11T04:36:58;100909.01;;;19.56;35.16
70555;BME280;58104;52.744;15.242;2023-05-11T04:39:23;100908.74;;;19.27;34.64
70555;BME280;58104;52.744;15.242;2023-05-11T04:41:49;100912.16;;;19.68;35.45
70555;BME280;58104;52.744;15.242;2023-05-11T04:44:14;100912.46;;;19.60;35.06
70555;BME280;58104;52.744;15.242;2023-05-11T04:46:40;100912.71;;;19.48;35.32
70555;BME280;58104;52.744;15.242;2023-05-11T04:49:06;100910.36;;;19.50;35.61
70555;BME280;58104;52.744;15.242;2023-05-11T04:51:32;100914.08;;;19.45;35.30
70555;BME280;58104;52.744;15.242;2023-05-11T04:53:57;100914.31;;;19.48;34.70
70555;BME280;58104;52.744;15.242;2023-05-11T04:56:23;100917.34;;;19.51;34.58
70555;BME280;58104;52.744;15.242;2023-05-11T04:58:48;100918.93;;;19.50;34.94
70555;BME280;58104;52.744;15.242;2023-05-11T05:01:13;100921.46;;;19.73;36.19
70555;BME280;58104;52.744;15.242;2023-05-11T05:03:39;100923.68;;;19.62;36.20
70555;BME280;58104;52.744;15.242;2023-05-11T05:06:04;100925.19;;;19.61;36.47
70555;BME280;58104;52.744;15.242;2023-05-11T05:08:29;100928.05;;;19.58;35.93
70555;BME280;58104;52.744;15.242;2023-05-11T05:10:55;100927.94;;;19.55;35.98
70555;BME280;58104;52.744;15.242;2023-05-11T05:13:20;100928.47;;;19.48;35.42
70555;BME280;58104;52.744;15.242;2023-05-11T05:15:46;100930.80;;;19.53;35.31
70555;BME280;58104;52.744;15.242;2023-05-11T05:18:11;100931.30;;;19.44;35.25
70555;BME280;58104;52.744;15.242;2023-05-11T05:20:37;100931.70;;;19.44;34.76
70555;BME280;58104;52.744;15.242;2023-05-11T05:23:02;100928.64;;;19.59;34.93
70555;BME280;58104;52.744;15.242;2023-05-11T05:25:28;100932.55;;;19.80;34.37
70555;BME280;58104;52.744;15.242;2023-05-11T05:27:54;100934.89;;;19.63;34.40
70555;BME280;58104;52.744;15.242;2023-05-11T05:30:19;100937.73;;;19.48;34.45
70555;BME280;58104;52.744;15.242;2023-05-11T05:32:44;100940.49;;;19.53;34.26
70555;BME280;58104;52.744;15.242;2023-05-11T05:35:10;100943.11;;;19.44;34.06
70555;BME280;58104;52.744;15.242;2023-05-11T05:37:36;100947.06;;;19.72;33.77
70555;BME280;58104;52.744;15.242;2023-05-11T05:40:01;100943.97;;;19.67;33.88
70555;BME280;58104;52.744;15.242;2023-05-11T05:42:26;100947.16;;;19.72;33.69
70555;BME280;58104;52.744;15.242;2023-05-11T05:44:52;100946.66;;;19.67;33.49
70555;BME280;58104;52.744;15.242;2023-05-11T05:47:17;100950.68;;;19.80;33.54
70555;BME280;58104;52.744;15.242;2023-05-11T05:49:43;100949.36;;;19.78;33.57
70555;BME280;58104;52.744;15.242;2023-05-11T05:52:09;100952.54;;;19.79;33.13
70555;BME280;58104;52.744;15.242;2023-05-11T05:54:34;100954.40;;;19.79;33.36
70555;BME280;58104;52.744;15.242;2023-05-11T05:56:59;100960.64;;;19.68;33.47
70555;BME280;58104;52.744;15.242;2023-05-11T05:59:24;100960.27;;;19.61;33.61
70555;BME280;58104;52.744;15.242;2023-05-11T06:01:50;100967.93;;;19.72;33.29
70555;BME280;58104;52.744;15.242;2023-05-11T06:04:15;100967.95;;;19.74;33.30
70555;BME280;58104;52.744;15.242;2023-05-11T06:06:40;100969.72;;;19.73;33.41
70555;BME280;58104;52.744;15.242;2023-05-11T06:09:06;100971.74;;;19.71;33.13
70555;BME280;58104;52.744;15.242;2023-05-11T06:11:31;100976.18;;;19.53;33.40
70555;BME280;58104;52.744;15.242;2023-05-11T06:13:56;100979.64;;;19.67;33.32
70555;BME280;58104;52.744;15.242;2023-05-11T06:16:21;100976.91;;;19.71;33.15
70555;BME280;58104;52.744;15.242;2023-05-11T06:18:46;100978.31;;;19.80;33.21
70555;BME280;58104;52.744;15.242;2023-05-11T06:21:12;100974.02;;;19.89;32.93
70555;BME280;58104;52.744;15.242;2023-05-11T06:23:37;100975.98;;;19.81;33.13
70555;BME280;58104;52.744;15.242;2023-05-11T06:26:03;100980.27;;;19.84;32.98
70555;BME280;58104;52.744;15.242;2023-05-11T06:28:29;100978.38;;;19.89;32.99
70555;BME280;58104;52.744;15.242;2023-05-11T06:30:55;100982.02;;;19.75;33.14
70555;BME280;58104;52.744;15.242;2023-05-11T06:33:20;100982.87;;;19.78;33.22
70555;BME280;58104;52.744;15.242;2023-05-11T06:35:46;100978.09;;;19.90;33.02
70555;BME280;58104;52.744;15.242;2023-05-11T06:38:11;100979.47;;;19.99;33.11
70555;BME280;58104;52.744;15.242;2023-05-11T06:40:36;100984.87;;;20.12;32.81
70555;BME280;58104;52.744;15.242;2023-05-11T06:43:01;100986.16;;;20.10;32.89
70555;BME280;58104;52.744;15.242;2023-05-11T06:45:27;100988.80;;;20.18;33.01
70555;BME280;58104;52.744;15.242;2023-05-11T06:47:53;100988.05;;;20.09;33.06
70555;BME280;58104;52.744;15.242;2023-05-11T06:50:18;100989.62;;;20.23;32.82
70555;BME280;58104;52.744;15.242;2023-05-11T06:52:43;100992.73;;;20.15;33.02
70555;BME280;58104;52.744;15.242;2023-05-11T06:55:12;100990.23;;;20.35;32.73
70555;BME280;58104;52.744;15.242;2023-05-11T06:57:34;100991.05;;;20.21;33.06
70555;BME280;58104;52.744;15.242;2023-05-11T06:59:59;100992.62;;;20.14;33.12
70555;BME280;58104;52.744;15.242;2023-05-11T07:02:24;100991.49;;;20.04;33.37
70555;BME280;58104;52.744;15.242;2023-05-11T07:04:50;100989.73;;;20.11;33.30
70555;BME280;58104;52.744;15.242;2023-05-11T07:07:16;100991.27;;;20.18;33.22
70555;BME280;58104;52.744;15.242;2023-05-11T07:09:41;100989.18;;;20.05;33.47
70555;BME280;58104;52.744;15.242;2023-05-11T07:12:07;100992.09;;;20.18;33.39
70555;BME280;58104;52.744;15.242;2023-05-11T07:14:32;100990.77;;;20.13;33.44
70555;BME280;58104;52.744;15.242;2023-05-11T07:16:57;100996.87;;;20.24;33.37
70555;BME280;58104;52.744;15.242;2023-05-11T07:19:23;100995.91;;;20.16;33.47
70555;BME280;58104;52.744;15.242;2023-05-11T07:21:48;100998.03;;;20.51;32.93
70555;BME280;58104;52.744;15.242;2023-05-11T07:24:14;100994.22;;;20.40;33.14
70555;BME280;58104;52.744;15.242;2023-05-11T07:26:39;100995.59;;;20.49;33.11
70555;BME280;58104;52.744;15.242;2023-05-11T07:29:05;100999.09;;;20.52;32.95
70555;BME280;58104;52.744;15.242;2023-05-11T07:31:30;100996.51;;;20.70;32.90
70555;BME280;58104;52.744;15.242;2023-05-11T07:33:55;101002.72;;;20.80;32.83
70555;BME280;58104;52.744;15.242;2023-05-11T07:36:21;101002.70;;;20.89;32.61
70555;BME280;58104;52.744;15.242;2023-05-11T07:38:46;101003.70;;;20.89;32.51
70555;BME280;58104;52.744;15.242;2023-05-11T07:41:11;101004.97;;;20.90;32.59
70555;BME280;58104;52.744;15.242;2023-05-11T07:43:37;101005.36;;;21.12;32.43
70555;BME280;58104;52.744;15.242;2023-05-11T07:46:02;101004.49;;;20.94;32.43
70555;BME280;58104;52.744;15.242;2023-05-11T07:48:27;101006.67;;;21.19;32.31
70555;BME280;58104;52.744;15.242;2023-05-11T07:50:52;101009.72;;;21.13;32.16
70555;BME280;58104;52.744;15.242;2023-05-11T07:53:18;101013.99;;;21.38;32.01
70555;BME280;58104;52.744;15.242;2023-05-11T07:55:44;101015.58;;;21.39;32.08
70555;BME280;58104;52.744;15.242;2023-05-11T07:58:09;101013.45;;;21.29;32.13
70555;BME280;58104;52.744;15.242;2023-05-11T08:00:34;101014.08;;;21.27;32.10
70555;BME280;58104;52.744;15.242;2023-05-11T08:02:59;101014.90;;;21.45;32.06
70555;BME280;58104;52.744;15.242;2023-05-11T08:05:24;101016.27;;;21.29;32.13
70555;BME280;58104;52.744;15.242;2023-05-11T08:07:50;101014.85;;;21.41;32.03
70555;BME280;58104;52.744;15.242;2023-05-11T08:10:15;101012.78;;;21.36;32.04
70555;BME280;58104;52.744;15.242;2023-05-11T08:12:40;101013.40;;;21.39;32.11
70555;BME280;58104;52.744;15.242;2023-05-11T08:15:07;101010.48;;;21.36;32.24
70555;BME280;58104;52.744;15.242;2023-05-11T08:17:31;101009.48;;;21.34;32.13
70555;BME280;58104;52.744;15.242;2023-05-11T08:19:56;101007.46;;;21.42;31.97
70555;BME280;58104;52.744;15.242;2023-05-11T08:22:22;101005.97;;;21.46;31.93
70555;BME280;58104;52.744;15.242;2023-05-11T08:24:48;101009.74;;;21.61;31.74
70555;BME280;58104;52.744;15.242;2023-05-11T08:27:12;101007.62;;;21.59;31.69
70555;BME280;58104;52.744;15.242;2023-05-11T08:29:38;101002.11;;;21.62;31.66
70555;BME280;58104;52.744;15.242;2023-05-11T08:32:03;101003.04;;;21.60;31.69
70555;BME280;58104;52.744;15.242;2023-05-11T08:34:28;101008.54;;;21.71;31.54
70555;BME280;58104;52.744;15.242;2023-05-11T08:36:54;101009.40;;;21.72;31.47
70555;BME280;58104;52.744;15.242;2023-05-11T08:39:20;101008.34;;;21.68;31.51
70555;BME280;58104;52.744;15.242;2023-05-11T08:41:45;101007.67;;;21.63;31.59
70555;BME280;58104;52.744;15.242;2023-05-11T08:44:10;101014.41;;;21.81;31.39
70555;BME280;58104;52.744;15.242;2023-05-11T08:46:39;101009.39;;;21.80;31.40
70555;BME280;58104;52.744;15.242;2023-05-11T08:49:00;101004.90;;;21.87;31.33
70555;BME280;58104;52.744;15.242;2023-05-11T08:51:26;101011.07;;;21.73;31.53
70555;BME280;58104;52.744;15.242;2023-05-11T08:53:51;101008.18;;;21.77;31.53
70555;BME280;58104;52.744;15.242;2023-05-11T08:56:17;101006.47;;;21.78;31.52
70555;BME280;58104;52.744;15.242;2023-05-11T08:58:42;101009.63;;;21.76;31.46
70555;BME280;58104;52.744;15.242;2023-05-11T09:01:09;101007.22;;;21.81;31.57
70555;BME280;58104;52.744;15.242;2023-05-11T09:03:34;101009.46;;;21.82;31.41
70555;BME280;58104;52.744;15.242;2023-05-11T09:05:59;101007.73;;;21.75;31.41
70555;BME280;58104;52.744;15.242;2023-05-11T09:08:28;101006.96;;;21.87;31.37
70555;BME280;58104;52.744;15.242;2023-05-11T09:10:49;101007.96;;;21.81;31.51
70555;BME280;58104;52.744;15.242;2023-05-11T09:13:14;101005.97;;;21.73;31.54
70555;BME280;58104;52.744;15.242;2023-05-11T09:15:39;101010.39;;;21.91;31.63
70555;BME280;58104;52.744;15.242;2023-05-11T09:18:04;101009.83;;;21.93;31.42
70555;BME280;58104;52.744;15.242;2023-05-11T09:20:33;101015.15;;;21.97;31.44
70555;BME280;58104;52.744;15.242;2023-05-11T09:22:55;101009.70;;;21.79;31.59
70555;BME280;58104;52.744;15.242;2023-05-11T09:25:21;101014.14;;;21.73;31.58
70555;BME280;58104;52.744;15.242;2023-05-11T09:27:46;101008.45;;;21.93;31.47
70555;BME280;58104;52.744;15.242;2023-05-11T09:30:13;101008.59;;;22.08;31.37
70555;BME280;58104;52.744;15.242;2023-05-11T09:37:27;101007.36;;;22.08;31.30
70555;BME280;58104;52.744;15.242;2023-05-11T09:39:53;101010.09;;;22.05;31.25
70555;BME280;58104;52.744;15.242;2023-05-11T09:42:20;101007.30;;;22.13;31.28
70555;BME280;58104;52.744;15.242;2023-05-11T09:44:44;101007.11;;;22.10;31.14
70555;BME280;58104;52.744;15.242;2023-05-11T09:47:11;101006.56;;;21.94;31.31
70555;BME280;58104;52.744;15.242;2023-05-11T09:49:34;101010.34;;;22.09;31.31
70555;BME280;58104;52.744;15.242;2023-05-11T09:52:00;101010.88;;;22.09;31.31
70555;BME280;58104;52.744;15.242;2023-05-11T09:54:25;101011.94;;;22.08;31.42
70555;BME280;58104;52.744;15.242;2023-05-11T09:56:51;101012.74;;;22.01;31.47
70555;BME280;58104;52.744;15.242;2023-05-11T09:59:16;101006.43;;;21.99;31.53
70555;BME280;58104;52.744;15.242;2023-05-11T10:01:40;101002.22;;;21.94;31.66
70555;BME280;58104;52.744;15.242;2023-05-11T10:04:06;101008.83;;;22.09;31.54
70555;BME280;58104;52.744;15.242;2023-05-11T10:11:22;101005.09;;;22.17;31.19
70555;BME280;58104;52.744;15.242;2023-05-11T10:13:47;100999.74;;;22.21;31.18
70555;BME280;58104;52.744;15.242;2023-05-11T10:16:15;101001.98;;;22.29;31.19
70555;BME280;58104;52.744;15.242;2023-05-11T10:18:37;101003.65;;;22.27;31.14
70555;BME280;58104;52.744;15.242;2023-05-11T10:21:03;100999.27;;;22.39;30.93
70555;BME280;58104;52.744;15.242;2023-05-11T10:23:30;100994.68;;;22.51;30.91
70555;BME280;58104;52.744;15.242;2023-05-11T10:25:55;100994.61;;;22.62;30.73
70555;BME280;58104;52.744;15.242;2023-05-11T10:28:20;100989.42;;;22.59;30.63
70555;BME280;58104;52.744;15.242;2023-05-11T10:30:45;100997.48;;;22.81;30.48
70555;BME280;58104;52.744;15.242;2023-05-11T10:33:10;100990.32;;;22.79;30.38
70555;BME280;58104;52.744;15.242;2023-05-11T10:35:37;100995.22;;;22.98;30.23
70555;BME280;58104;52.744;15.242;2023-05-11T10:38:01;100985.69;;;23.01;30.23
70555;BME280;58104;52.744;15.242;2023-05-11T10:40:27;100986.90;;;23.08;30.04
70555;BME280;58104;52.744;15.242;2023-05-11T10:43:04;100982.55;;;23.22;29.96
70555;BME280;58104;52.744;15.242;2023-05-11T10:45:21;100981.09;;;23.25;29.92
70555;BME280;58104;52.744;15.242;2023-05-11T10:48:03;100975.78;;;23.25;29.92
70555;BME280;58104;52.744;15.242;2023-05-11T10:50:19;100980.01;;;23.21;29.82
70555;BME280;58104;52.744;15.242;2023-05-11T10:52:48;100974.99;;;23.27;29.89
70555;BME280;58104;52.744;15.242;2023-05-11T10:55:09;100973.11;;;23.11;29.98
70555;BME280;58104;52.744;15.242;2023-05-11T10:57:35;100970.77;;;23.00;30.07
70555;BME280;58104;52.744;15.242;2023-05-11T11:00:04;100973.73;;;23.00;30.10
70555;BME280;58104;52.744;15.242;2023-05-11T11:02:15;100979.12;;;22.83;30.21
70555;BME280;58104;52.744;15.242;2023-05-11T11:04:43;100979.20;;;23.02;30.23
70555;BME280;58104;52.744;15.242;2023-05-11T11:07:06;100975.58;;;22.85;30.27
70555;BME280;58104;52.744;15.242;2023-05-11T11:14:22;100992.65;;;22.73;30.42
70555;BME280;58104;52.744;15.242;2023-05-11T11:21:39;100979.42;;;22.79;30.29
70555;BME280;58104;52.744;15.242;2023-05-11T11:24:03;100982.26;;;22.68;30.45
70555;BME280;58104;52.744;15.242;2023-05-11T11:31:23;100984.85;;;22.59;30.62
70555;BME280;58104;52.744;15.242;2023-05-11T11:33:45;100984.84;;;22.49;30.68
70555;BME280;58104;52.744;15.242;2023-05-11T11:36:10;100991.16;;;22.67;30.40
70555;BME280;58104;52.744;15.242;2023-05-11T11:41:00;101003.82;;;22.81;30.29
70555;BME280;58104;52.744;15.242;2023-05-11T11:43:30;100990.24;;;22.86;30.18
70555;BME280;58104;52.744;15.242;2023-05-11T11:45:52;100989.40;;;23.19;29.77
70555;BME280;58104;52.744;15.242;2023-05-11T11:48:21;100990.78;;;23.26;29.63
70555;BME280;58104;52.744;15.242;2023-05-11T11:50:44;100991.69;;;23.51;29.39
70555;BME280;58104;52.744;15.242;2023-05-11T11:53:13;100989.92;;;23.42;29.36
70555;BME280;58104;52.744;15.242;2023-05-11T11:57:57;100991.92;;;23.29;29.64
70555;BME280;58104;52.744;15.242;2023-05-11T12:00:23;100989.67;;;23.17;29.79
70555;BME280;58104;52.744;15.242;2023-05-11T12:02:48;100990.25;;;23.18;29.82
70555;BME280;58104;52.744;15.242;2023-05-11T12:05:15;100988.66;;;23.15;29.86
70555;BME280;58104;52.744;15.242;2023-05-11T12:07:42;100987.13;;;23.33;29.72
70555;BME280;58104;52.744;15.242;2023-05-11T12:10:05;100985.49;;;23.38;29.67
70555;BME280;58104;52.744;15.242;2023-05-11T12:12:30;100984.91;;;23.42;29.52
70555;BME280;58104;52.744;15.242;2023-05-11T12:14:55;100976.90;;;23.42;29.45
70555;BME280;58104;52.744;15.242;2023-05-11T12:17:24;100974.90;;;23.52;29.38
70555;BME280;58104;52.744;15.242;2023-05-11T12:19:46;100980.46;;;23.44;29.49
70555;BME280;58104;52.744;15.242;2023-05-11T12:22:11;100976.95;;;23.46;29.49
70555;BME280;58104;52.744;15.242;2023-05-11T12:24:37;100979.18;;;23.40;29.49
70555;BME280;58104;52.744;15.242;2023-05-11T12:27:02;100970.57;;;23.37;29.54
70555;BME280;58104;52.744;15.242;2023-05-11T12:29:27;100965.87;;;23.40;29.57
70555;BME280;58104;52.744;15.242;2023-05-11T12:31:52;100968.67;;;23.33;29.64
70555;BME280;58104;52.744;15.242;2023-05-11T12:34:19;100972.70;;;23.39;29.60
70555;BME280;58104;52.744;15.242;2023-05-11T12:36:44;100964.18;;;23.37;29.59
70555;BME280;58104;52.744;15.242;2023-05-11T12:39:15;100956.99;;;23.36;29.59
70555;BME280;58104;52.744;15.242;2023-05-11T12:41:34;100964.75;;;23.38;29.63
70555;BME280;58104;52.744;15.242;2023-05-11T12:43:59;100957.83;;;23.26;29.66
70555;BME280;58104;52.744;15.242;2023-05-11T12:46:25;100966.37;;;23.25;29.75
70555;BME280;58104;52.744;15.242;2023-05-11T12:48:50;100957.93;;;23.25;29.56
70555;BME280;58104;52.744;15.242;2023-05-11T12:53:40;100960.97;;;23.28;29.57
70555;BME280;58104;52.744;15.242;2023-05-11T12:56:06;100952.49;;;23.38;29.51
70555;BME280;58104;52.744;15.242;2023-05-11T12:58:36;100957.37;;;23.38;29.47
70555;BME280;58104;52.744;15.242;2023-05-11T13:00:57;100959.60;;;23.30;29.51
70555;BME280;58104;52.744;15.242;2023-05-11T13:03:22;100957.08;;;23.26;29.52